NCAR-RAP Real-Time Weather Data

Output produced by METARs form (17 October 2018  16:21 UTC)
found at http://weather.rap.ucar.edu/surface/
 
RJBT 170900Z VRB02KT 9999 FEW003 SCT025 BKN100 16/16 Q1014
RJBT 170800Z 01003KT 340V040 9999 FEW003 SCT020 BKN100 16/16 Q1013
RJBT 170700Z 35004KT 300V030 9999 -SHRA FEW000 SCT020 BKN100 17/17 Q1013
RJBT 170600Z 36005KT 320V020 9999 VCSH FEW000 SCT020 BKN100 17/17 Q1012
RJBT 170500Z 36008KT 330V060 9999 VCSH FEW000 SCT025 BKN120 17/17 Q1012
RJBT 170400Z 36007KT 340V040 9999 VCSH FEW000 SCT020 BKN120 17/17 Q1012
RJBT 170300Z VRB02KT 9999 -SHRA FEW000 SCT015 BKN070 16/16 Q1012
RJBT 170200Z 33005KT 280V020 9999 -SHRA FEW000 SCT050 BKN100 17/17 Q1013
RJBT 170100Z VRB01KT 9999 PRFG FEW000 SCT050 BKN070 16/16 Q1013
RJBT 170021Z 27004KT 190V340 9999 -SHRA PRFG FEW000 SCT050 BKN070 15/15 Q1013 RMK 1ST000 3SC050 6AC070 A2991 FG NE-SE
RJBT 170000Z VRB02KT 2500 -SHRA BCFG FEW000 SCT005 BKN070 14/14 Q1012
RJBT 162342Z VRB01KT 2000 -SHRA BCFG FEW000 SCT003 BKN070 14/14 Q1012 RMK 1ST000 3ST003 5AC070 A2991 1000SE FG ALL QUAD
RJBT 162330Z VRB02KT 2500 SHRA BCFG FEW000 BKN070 14/14 Q1012
RJBT 160900Z 33003KT 9999 FEW025 BKN050 BKN/// 17/17 Q1012
RJBT 160800Z 35003KT 300V030 9999 FEW025 SCT070 BKN/// 17/17 Q1012
RJBT 160700Z 35005KT 320V020 9999 FEW025 SCT030 BKN070 18/18 Q1012
RJBT 160600Z 35007KT 300V030 9999 FEW025 SCT030 BKN/// 19/13 Q1012
RJBT 160500Z 02005KT 330V050 9999 FEW030 SCT035 20/12 Q1012
RJBT 160400Z 36004KT 280V050 9999 FEW030 SCT040 19/12 Q1013
RJBT 160300Z VRB02KT 9999 FEW030 SCT045 BKN/// 19/11 Q1013
RJBT 160200Z 17004KT 100V200 9999 FEW030 BKN/// 19/17 Q1014
RJBT 160100Z VRB02KT 9999 FEW000 BKN/// 16/16 Q1015
RJBT 160024Z VRB02KT 9999 PRFG FEW000 BKN/// 15/15 Q1015 RMK 1ST000 A3000 2500NE FG BANK N-SE
RJBT 160000Z 17003KT 140V210 3500 BCFG FEW000 BKN/// 14/14 Q1015
RJBT 152330Z VRB02KT 4000 BCFG FEW000 BKN/// 14/14 Q1016
RJBT 150900Z VRB01KT 9999 FEW020 BKN030 18/18 Q1016
RJBT 150800Z 33006KT 290V360 9999 FEW020 BKN030 19/13 Q1016
RJBT 150700Z 34004KT 300V020 9999 FEW030 BKN035 20/13 Q1016
RJBT 150600Z 34007KT 310V010 9999 FEW030 20/12 Q1016
RJBT 150500Z 36005KT 310V040 9999 FEW030 21/12 Q1016